Time;durP1;ratioP1;P1;durP2;ratioP2;P2;SDS_P1;SDS_P2;PMS_P1;PMS_P2;Temp;Humidity;BMP_temperature;BMP_pressure;BME280_temperature;BME280_humidity;BME280_pressure;Samples;Min_cycle;Max_cycle;Signal;HPM_P1;HPM_P2
2022/05/11 00:01:49;;;;;;;2.93;1.67;;;;;17.90;100851.00;;;;4926856;28;20334;-69
2022/05/11 00:04:38;;;;;;;2.77;2.10;;;;;17.90;100844.00;;;;4926518;28;20327;-68
2022/05/11 00:07:25;;;;;;;2.40;1.63;;;;;17.90;100850.00;;;;4925192;28;20232;-68
2022/05/11 00:10:12;;;;;;;2.27;1.60;;;;;17.90;100838.00;;;;4925075;28;20875;-69
2022/05/11 00:13:00;;;;;;;2.47;1.67;;;;;17.90;100833.00;;;;4926472;28;20805;-69
2022/05/11 00:15:46;;;;;;;2.40;1.80;;;;;17.90;100836.00;;;;4928307;28;20232;-68
2022/05/11 00:18:33;;;;;;;5.23;1.83;;;;;17.90;100818.00;;;;4927983;28;20327;-68
2022/05/11 00:21:19;;;;;;;2.60;1.70;;;;;17.80;100826.00;;;;4928800;28;20240;-68
2022/05/11 00:24:06;;;;;;;1.93;1.60;;;;;17.90;100821.00;;;;4927459;28;20244;-69
2022/05/11 00:26:53;;;;;;;3.03;1.53;;;;;18.00;100814.00;;;;4926984;28;20232;-69
2022/05/11 00:29:41;;;;;;;2.57;1.50;;;;;17.80;100814.00;;;;4923505;28;20232;-68
2022/05/11 00:32:27;;;;;;;2.70;1.80;;;;;17.80;100822.00;;;;4930421;28;20244;-69
2022/05/11 00:35:14;;;;;;;1.93;1.60;;;;;17.80;100813.00;;;;4928219;28;20241;-67
2022/05/11 00:38:00;;;;;;;2.67;1.90;;;;;17.80;100798.00;;;;4927278;28;20665;-68
2022/05/11 00:40:50;;;;;;;2.47;1.90;;;;;17.70;100806.00;;;;4923192;28;20320;-68
2022/05/11 00:43:40;;;;;;;1.73;1.57;;;;;17.70;100801.00;;;;4927389;28;20299;-68
2022/05/11 00:46:36;;;;;;;1.90;1.70;;;;;17.80;100794.00;;;;4927370;28;20369;-68
2022/05/11 00:49:38;;;;;;;2.90;2.00;;;;;17.70;100794.00;;;;4927340;28;20236;-68
2022/05/11 00:52:30;;;;;;;2.00;1.80;;;;;17.70;100779.00;;;;4926877;28;20310;-69
2022/05/11 00:55:22;;;;;;;2.20;1.90;;;;;17.70;100779.00;;;;4927525;28;20340;-66
2022/05/11 00:58:13;;;;;;;2.33;1.80;;;;;17.60;100776.00;;;;4927350;28;20320;-68
2022/05/11 01:00:59;;;;;;;2.20;1.90;;;;;17.60;100779.00;;;;4924777;28;20325;-69
2022/05/11 01:03:52;;;;;;;2.53;1.80;;;;;17.60;100776.00;;;;4922048;28;20233;-65
2022/05/11 01:06:40;;;;;;;2.50;1.80;;;;;17.60;100782.00;;;;4927361;28;20228;-68
2022/05/11 01:09:26;;;;;;;2.00;1.80;;;;;17.50;100775.00;;;;4927559;28;20236;-69
2022/05/11 01:12:17;;;;;;;2.20;1.90;;;;;17.50;100762.00;;;;4934518;28;20236;-68
2022/05/11 01:15:05;;;;;;;1.60;1.50;;;;;17.50;100761.00;;;;4924700;28;20810;-68
2022/05/11 01:17:52;;;;;;;1.97;1.70;;;;;17.60;100764.00;;;;4926577;28;20374;-69
2022/05/11 01:20:40;;;;;;;2.50;1.90;;;;;17.50;100763.00;;;;4927000;28;20235;-68
2022/05/11 01:23:33;;;;;;;1.93;1.60;;;;;17.50;100758.00;;;;4927100;28;20725;-69
2022/05/11 01:26:20;;;;;;;2.33;1.80;;;;;17.40;100749.00;;;;4929677;28;20240;-68
2022/05/11 01:29:06;;;;;;;2.03;1.70;;;;;17.40;100749.00;;;;4931371;28;20232;-69
2022/05/11 01:31:52;;;;;;;3.13;1.70;;;;;17.40;100744.00;;;;4925261;28;20232;-67
2022/05/11 01:34:39;;;;;;;1.67;1.57;;;;;17.40;100740.00;;;;4930779;28;20240;-68
2022/05/11 01:37:25;;;;;;;1.87;1.30;;;;;17.40;100745.00;;;;4931547;28;20874;-68
2022/05/11 01:40:11;;;;;;;2.60;2.40;;;;;17.30;100736.00;;;;4931066;28;20248;-68
2022/05/11 01:42:59;;;;;;;2.67;1.93;;;;;17.30;100735.00;;;;4931122;28;20361;-68
2022/05/11 01:45:46;;;;;;;1.67;1.57;;;;;17.30;100737.00;;;;4930877;28;20224;-68
2022/05/11 01:48:32;;;;;;;1.90;1.80;;;;;17.20;100742.00;;;;4930518;28;20240;-68
2022/05/11 01:51:20;;;;;;;2.60;1.83;;;;;17.20;100724.00;;;;4944177;28;20257;-67
2022/05/11 01:54:07;;;;;;;2.70;1.80;;;;;17.10;100727.00;;;;4949600;28;20368;-68
2022/05/11 01:56:53;;;;;;;1.77;1.50;;;;;17.10;100728.00;;;;4944141;28;20235;-69
2022/05/11 01:59:41;;;;;;;2.57;1.90;;;;;17.10;100723.00;;;;4949880;28;20236;-66
2022/05/11 02:02:27;;;;;;;3.37;1.97;;;;;17.00;100714.00;;;;4948718;28;20248;-68
2022/05/11 02:08:17;;;;;;;2.20;1.70;;;;;17.00;100696.00;;;;4946449;28;20244;-67
2022/05/11 02:11:04;;;;;;;2.27;1.80;;;;;17.00;100700.00;;;;4949525;28;20307;-68
2022/05/11 02:13:50;;;;;;;2.20;1.80;;;;;16.90;100702.00;;;;4942977;28;20243;-69
2022/05/11 02:16:38;;;;;;;2.17;1.97;;;;;16.70;100696.00;;;;4949447;28;20605;-66
2022/05/11 02:19:25;;;;;;;2.43;2.10;;;;;16.70;100696.00;;;;4949123;28;20251;-68
2022/05/11 02:22:11;;;;;;;1.93;1.60;;;;;16.60;100697.00;;;;4949297;28;20266;-68
2022/05/11 02:24:57;;;;;;;2.90;2.00;;;;;16.60;100696.00;;;;4947981;28;20240;-70
2022/05/11 02:27:43;;;;;;;2.33;1.90;;;;;16.50;100698.00;;;;4944934;28;20251;-69
2022/05/11 02:30:32;;;;;;;4.87;1.93;;;;;16.50;100696.00;;;;4950021;28;20239;-65
2022/05/11 02:33:21;;;;;;;3.80;1.87;;;;;16.60;100694.00;;;;4953211;28;20240;-67
2022/05/11 02:36:08;;;;;;;2.83;2.10;;;;;16.60;100692.00;;;;4948944;28;20251;-68
2022/05/11 02:38:55;;;;;;;3.53;2.03;;;;;16.60;100677.00;;;;4949915;28;20255;-69
2022/05/11 02:41:41;;;;;;;3.13;2.17;;;;;16.50;100676.00;;;;4942693;28;20299;-69
2022/05/11 02:44:28;;;;;;;3.40;2.07;;;;;16.60;100690.00;;;;4943284;28;20232;-68
2022/05/11 02:47:15;;;;;;;2.83;2.00;;;;;16.60;100690.00;;;;4949069;28;20243;-68
2022/05/11 02:50:05;;;;;;;2.60;2.00;;;;;16.60;100677.00;;;;4944000;28;20884;-68
2022/05/11 02:52:52;;;;;;;3.37;2.07;;;;;16.60;100684.00;;;;4942573;28;20630;-66
2022/05/11 02:55:39;;;;;;;4.10;2.03;;;;;16.60;100672.00;;;;4948564;28;20228;-69
2022/05/11 02:58:28;;;;;;;4.50;2.20;;;;;16.60;100673.00;;;;4948763;28;20293;-69
2022/05/11 03:01:15;;;;;;;2.83;2.13;;;;;16.50;100675.00;;;;4948712;28;20608;-68
2022/05/11 03:04:01;;;;;;;3.33;2.27;;;;;16.60;100666.00;;;;4943451;28;20260;-68
2022/05/11 03:06:49;;;;;;;2.07;1.80;;;;;16.60;100666.00;;;;4941935;28;20230;-68
2022/05/11 03:09:35;;;;;;;2.43;2.13;;;;;16.60;100665.00;;;;4948301;28;20232;-68
2022/05/11 03:12:22;;;;;;;2.87;2.10;;;;;16.50;100668.00;;;;4955665;28;20237;-68
2022/05/11 03:15:10;;;;;;;7.60;2.30;;;;;16.60;100670.00;;;;4948702;28;20387;-67
2022/05/11 03:17:57;;;;;;;2.57;2.17;;;;;16.50;100673.00;;;;4948806;28;20240;-68
2022/05/11 03:20:43;;;;;;;2.87;1.90;;;;;16.60;100672.00;;;;4943106;28;20239;-68
2022/05/11 03:23:30;;;;;;;2.13;1.80;;;;;16.50;100657.00;;;;4943715;28;20232;-68
2022/05/11 03:26:16;;;;;;;3.53;2.10;;;;;16.60;100657.00;;;;4948314;28;20238;-68
2022/05/11 03:29:05;;;;;;;3.67;2.53;;;;;16.50;100640.00;;;;4948220;28;20244;-68
2022/05/11 03:34:55;;;;;;;4.93;2.50;;;;;16.40;100634.00;;;;4943876;28;20240;-68
2022/05/11 03:37:42;;;;;;;3.03;2.40;;;;;16.50;100644.00;;;;4941360;28;20224;-68
2022/05/11 03:40:30;;;;;;;3.40;2.10;;;;;16.50;100640.00;;;;4946315;28;20306;-68
2022/05/11 03:43:17;;;;;;;3.53;2.30;;;;;16.40;100644.00;;;;4947478;28;21026;-68
2022/05/11 03:46:03;;;;;;;3.90;2.20;;;;;16.50;100635.00;;;;4948261;28;20755;-69
2022/05/11 03:48:49;;;;;;;4.20;2.20;;;;;16.40;100640.00;;;;4940739;28;20645;-68
2022/05/11 03:51:35;;;;;;;3.37;2.10;;;;;16.50;100625.00;;;;4947821;28;20247;-69
2022/05/11 03:54:21;;;;;;;3.20;1.93;;;;;16.40;100614.00;;;;4947305;28;20707;-69
2022/05/11 03:57:09;;;;;;;4.07;2.10;;;;;16.40;100619.00;;;;4948066;28;20231;-69
2022/05/11 03:59:55;;;;;;;4.43;2.60;;;;;16.40;100620.00;;;;4942398;28;20367;-69
2022/05/11 04:02:42;;;;;;;2.77;2.00;;;;;16.40;100618.00;;;;4940015;28;20234;-68
2022/05/11 04:05:28;;;;;;;3.83;2.27;;;;;16.40;100621.00;;;;4947583;28;20607;-68
2022/05/11 04:08:14;;;;;;;3.27;2.20;;;;;16.40;100623.00;;;;4947787;28;20236;-69
2022/05/11 04:11:01;;;;;;;3.00;2.40;;;;;16.40;100619.00;;;;4944625;28;20617;-69
2022/05/11 04:13:49;;;;;;;4.53;2.17;;;;;16.40;100619.00;;;;4947663;28;20372;-68
2022/05/11 04:16:35;;;;;;;2.70;2.20;;;;;16.40;100622.00;;;;4947366;28;20238;-68
2022/05/11 04:19:22;;;;;;;3.80;2.10;;;;;16.40;100616.00;;;;4947749;28;20239;-69
2022/05/11 04:22:09;;;;;;;3.13;2.20;;;;;16.30;100563.00;;;;4947543;28;20228;-69
2022/05/11 04:24:56;;;;;;;3.30;2.30;;;;;16.40;100620.00;;;;4941595;28;20235;-69
2022/05/11 04:27:42;;;;;;;2.40;1.90;;;;;16.40;100621.00;;;;4939829;28;20303;-68
2022/05/11 04:30:31;;;;;;;2.60;1.83;;;;;16.40;100617.00;;;;4947222;28;20582;-67
2022/05/11 04:33:17;;;;;;;4.40;2.57;;;;;16.50;100615.00;;;;4953542;28;20864;-69
2022/05/11 04:36:05;;;;;;;3.37;2.20;;;;;16.50;100617.00;;;;4947249;28;20228;-67
2022/05/11 04:38:52;;;;;;;2.80;2.33;;;;;16.60;100612.00;;;;4942184;28;20247;-69
2022/05/11 04:41:38;;;;;;;3.47;2.40;;;;;16.50;100604.00;;;;4947041;28;20740;-69
2022/05/11 04:44:25;;;;;;;7.93;2.67;;;;;16.50;100602.00;;;;4946977;28;20335;-68
2022/05/11 04:47:19;;;;;;;2.87;2.00;;;;;16.50;100602.00;;;;4945809;28;20907;-69
2022/05/11 04:50:07;;;;;;;2.83;2.33;;;;;16.60;100604.00;;;;4946185;28;20350;-67
2022/05/11 04:52:53;;;;;;;3.00;2.20;;;;;16.60;100595.00;;;;4939064;28;20236;-68
2022/05/11 04:55:40;;;;;;;3.27;2.27;;;;;16.50;100599.00;;;;4946353;28;20239;-68
2022/05/11 04:58:31;;;;;;;3.07;2.20;;;;;16.40;100583.00;;;;4944510;28;20262;-69
2022/05/11 05:01:18;;;;;;;6.80;2.50;;;;;16.40;100591.00;;;;4946664;28;20358;-69
2022/05/11 05:04:06;;;;;;;3.97;2.30;;;;;16.40;100591.00;;;;4946582;28;20236;-70
2022/05/11 05:06:52;;;;;;;4.67;2.37;;;;;16.30;100587.00;;;;4940784;28;20249;-68
2022/05/11 05:09:38;;;;;;;3.13;2.20;;;;;16.30;100590.00;;;;4945930;28;20224;-69
2022/05/11 05:12:25;;;;;;;3.03;2.30;;;;;16.30;100586.00;;;;4953876;28;20305;-69
2022/05/11 05:15:12;;;;;;;3.70;2.20;;;;;16.40;100593.00;;;;4946282;28;20239;-67
2022/05/11 05:18:01;;;;;;;3.50;2.50;;;;;16.50;100602.00;;;;4941441;28;20314;-68
2022/05/11 05:20:48;;;;;;;4.80;2.20;;;;;16.50;100594.00;;;;4939695;28;20239;-69
2022/05/11 05:23:35;;;;;;;3.70;2.30;;;;;16.60;100607.00;;;;4946055;28;20243;-69
2022/05/11 05:26:21;;;;;;;4.23;2.43;;;;;16.80;100602.00;;;;4946604;28;20247;-70
2022/05/11 05:32:12;;;;;;;5.53;2.70;;;;;16.90;100597.00;;;;4948920;28;20241;-69
2022/05/11 05:35:00;;;;;;;4.13;2.57;;;;;17.00;100611.00;;;;4947052;28;20735;-68
2022/05/11 05:37:48;;;;;;;3.50;2.97;;;;;17.10;100608.00;;;;4947277;28;20360;-67
2022/05/11 05:40:35;;;;;;;5.70;2.33;;;;;17.00;100599.00;;;;4946114;28;20260;-68
2022/05/11 05:43:22;;;;;;;8.77;2.70;;;;;17.10;100596.00;;;;4946056;28;20228;-69
2022/05/11 05:46:09;;;;;;;6.03;2.80;;;;;17.10;100597.00;;;;4946426;28;20333;-69
2022/05/11 05:48:55;;;;;;;3.80;2.50;;;;;17.10;100608.00;;;;4945671;28;20224;-69
2022/05/11 05:51:42;;;;;;;4.43;3.07;;;;;17.20;100606.00;;;;4944447;28;20299;-70
2022/05/11 05:54:31;;;;;;;4.67;2.60;;;;;17.30;100601.00;;;;4944891;28;20749;-70
2022/05/11 05:57:19;;;;;;;3.67;2.77;;;;;17.30;100598.00;;;;4945169;28;20231;-69
2022/05/11 06:00:07;;;;;;;4.60;2.77;;;;;17.40;100596.00;;;;4944704;28;20730;-71
2022/05/11 06:02:55;;;;;;;3.33;2.43;;;;;17.50;100592.00;;;;4944013;28;20244;-68
2022/05/11 06:05:41;;;;;;;3.97;2.77;;;;;17.50;100611.00;;;;4938478;28;20239;-70
2022/05/11 06:08:29;;;;;;;3.50;2.33;;;;;17.60;100604.00;;;;4948002;29;20591;-69
2022/05/11 06:11:17;;;;;;;6.20;3.23;;;;;17.70;100601.00;;;;4949572;28;20259;-70
2022/05/11 06:14:04;;;;;;;3.73;2.80;;;;;17.80;100591.00;;;;4947173;29;20264;-69
2022/05/11 06:16:50;;;;;;;6.70;3.20;;;;;17.90;100592.00;;;;4945969;29;20216;-69
2022/05/11 06:19:39;;;;;;;2.57;2.30;;;;;18.10;100589.00;;;;4952369;29;20251;-71
2022/05/11 06:22:25;;;;;;;6.13;2.17;;;;;18.30;100582.00;;;;4952074;29;20368;-68
2022/05/11 06:25:12;;;;;;;5.97;2.80;;;;;18.30;100583.00;;;;4952730;29;20247;-71
2022/05/11 06:27:59;;;;;;;6.10;2.60;;;;;18.50;100588.00;;;;4946978;29;20333;-68
2022/05/11 06:30:47;;;;;;;9.80;2.70;;;;;18.50;100575.00;;;;4952921;29;20237;-69
2022/05/11 06:33:33;;;;;;;5.10;2.70;;;;;18.70;100571.00;;;;4952091;29;20582;-69
2022/05/11 06:36:22;;;;;;;5.80;3.17;;;;;18.70;100568.00;;;;4952465;29;20212;-69
2022/05/11 06:39:09;;;;;;;5.23;2.70;;;;;18.80;100570.00;;;;4952523;29;20263;-69
2022/05/11 06:42:02;;;;;;;6.40;2.87;;;;;18.90;100570.00;;;;4949194;29;20204;-70
2022/05/11 06:44:50;;;;;;;4.50;2.60;;;;;19.00;100554.00;;;;4952116;29;20231;-70
2022/05/11 06:47:37;;;;;;;3.50;2.83;;;;;19.10;100580.00;;;;4952288;29;20660;-69
2022/05/11 06:50:26;;;;;;;3.73;2.70;;;;;19.20;100571.00;;;;4952137;29;20268;-70
2022/05/11 06:53:14;;;;;;;5.77;3.03;;;;;19.20;100576.00;;;;4952289;29;20219;-70
2022/05/11 06:59:24;;;;;;;7.73;3.13;;;;;19.30;100570.00;;;;4952058;29;20418;-69
2022/05/11 07:02:12;;;;;;;6.47;3.83;;;;;19.40;100567.00;;;;4951833;29;20303;-71
2022/05/11 07:04:58;;;;;;;8.00;3.90;;;;;19.40;100570.00;;;;4945944;29;20635;-72
2022/05/11 07:07:45;;;;;;;7.23;3.63;;;;;19.50;100575.00;;;;4944145;29;20212;-70
2022/05/11 07:10:32;;;;;;;6.10;3.27;;;;;19.50;100570.00;;;;4951511;29;20356;-69
2022/05/11 07:13:18;;;;;;;6.07;3.93;;;;;19.60;100574.00;;;;4951490;28;20212;-70
2022/05/11 07:16:05;;;;;;;7.50;3.77;;;;;19.80;100558.00;;;;4946698;29;20204;-68
2022/05/11 07:18:53;;;;;;;6.50;4.27;;;;;19.90;100571.00;;;;4944504;29;20291;-70
2022/05/11 07:21:39;;;;;;;11.20;4.87;;;;;19.80;100564.00;;;;4950417;29;20232;-71
2022/05/11 07:24:26;;;;;;;8.77;4.23;;;;;19.80;100568.00;;;;4950231;29;20248;-70
2022/05/11 07:27:12;;;;;;;6.27;4.00;;;;;19.90;100573.00;;;;4951441;29;20267;-70
2022/05/11 07:29:58;;;;;;;9.73;4.50;;;;;20.10;100556.00;;;;4945173;29;20332;-66
2022/05/11 07:32:44;;;;;;;12.17;4.60;;;;;20.20;100556.00;;;;4950855;29;20232;-69
2022/05/11 07:35:32;;;;;;;7.07;4.17;;;;;20.10;100560.00;;;;4951353;29;20244;-69
2022/05/11 07:38:19;;;;;;;9.40;4.43;;;;;20.20;100560.00;;;;4951409;29;20272;-67
2022/05/11 07:41:06;;;;;;;8.27;3.77;;;;;20.30;100556.00;;;;4945751;29;20233;-69
2022/05/11 07:43:52;;;;;;;9.90;4.17;;;;;20.30;100568.00;;;;4944125;29;20232;-68
2022/05/11 07:46:38;;;;;;;9.27;3.40;;;;;20.40;100553.00;;;;4949635;29;20208;-68
2022/05/11 07:49:25;;;;;;;5.80;2.97;;;;;20.50;100569.00;;;;4947233;29;20217;-69
2022/05/11 07:52:12;;;;;;;6.17;2.83;;;;;20.40;100565.00;;;;4948635;29;20216;-69
2022/05/11 07:54:59;;;;;;;4.13;2.90;;;;;20.50;100565.00;;;;4947352;29;20595;-71
2022/05/11 08:00:49;;;;;;;3.83;2.40;;;;;20.70;100553.00;;;;4943371;29;20605;-69
2022/05/11 08:03:35;;;;;;;4.43;2.30;;;;;20.80;100567.00;;;;4950402;29;20216;-70
2022/05/11 08:06:21;;;;;;;5.60;2.80;;;;;20.80;100559.00;;;;4950496;29;20212;-69
2022/05/11 08:09:09;;;;;;;3.63;2.60;;;;;21.00;100555.00;;;;4950701;29;20264;-69
2022/05/11 08:11:56;;;;;;;3.37;2.27;;;;;21.10;100559.00;;;;4944200;28;20224;-68
2022/05/11 08:14:44;;;;;;;5.60;2.57;;;;;21.20;100564.00;;;;4950324;29;21763;-67
2022/05/11 08:17:33;;;;;;;11.13;4.37;;;;;21.40;100554.00;;;;4950511;29;20232;-68
2022/05/11 08:20:23;;;;;;;6.17;2.20;;;;;21.60;100556.00;;;;4950689;29;20757;-69
2022/05/11 08:23:11;;;;;;;3.83;2.40;;;;;21.70;100565.00;;;;4950171;29;20225;-70
2022/05/11 08:25:58;;;;;;;3.87;1.93;;;;;21.70;100580.00;;;;4943932;29;20864;-69
2022/05/11 08:28:45;;;;;;;6.27;1.70;;;;;21.60;100567.00;;;;4949649;29;20359;-70
2022/05/11 08:34:35;;;;;;;1.90;1.57;;;;;21.70;100567.00;;;;4946779;28;20237;-69
2022/05/11 08:37:22;;;;;;;4.43;2.43;;;;;21.80;100561.00;;;;4948963;29;20232;-70
2022/05/11 08:40:12;;;;;;;3.17;2.23;;;;;21.90;100556.00;;;;4947338;29;20300;-69
2022/05/11 08:43:02;;;;;;;1.50;1.40;;;;;22.00;100560.00;;;;4943314;29;20637;-69
2022/05/11 08:45:54;;;;;;;1.93;1.50;;;;;22.10;100559.00;;;;4950286;29;20346;-70
2022/05/11 08:48:52;;;;;;;2.27;1.63;;;;;22.20;100559.00;;;;4949986;29;20255;-68
2022/05/11 08:51:42;;;;;;;2.27;1.80;;;;;22.30;100553.00;;;;4947548;29;20300;-69
2022/05/11 08:54:42;;;;;;;2.07;1.73;;;;;22.40;100563.00;;;;4947698;29;20442;-70
2022/05/11 08:57:28;;;;;;;3.00;1.50;;;;;22.50;100548.00;;;;4949197;29;20214;-70
2022/05/11 09:00:19;;;;;;;1.83;1.70;;;;;22.60;100555.00;;;;4945707;29;20239;-70
2022/05/11 09:03:12;;;;;;;2.23;2.00;;;;;22.60;100558.00;;;;4949817;29;20316;-70
2022/05/11 09:05:59;;;;;;;3.23;1.73;;;;;22.80;100555.00;;;;4949192;29;20282;-68
2022/05/11 09:08:47;;;;;;;2.43;1.60;;;;;22.80;100559.00;;;;4949396;29;20231;-70
2022/05/11 09:11:40;;;;;;;2.93;1.93;;;;;23.00;100574.00;;;;4950455;28;20588;-70
2022/05/11 09:14:30;;;;;;;2.63;2.00;;;;;22.80;100556.00;;;;4949494;29;20291;-67
2022/05/11 09:17:26;;;;;;;2.77;2.17;;;;;23.00;100562.00;;;;4949664;29;20220;-69
2022/05/11 09:20:14;;;;;;;3.57;1.70;;;;;23.20;100539.00;;;;4946965;29;20267;-69
2022/05/11 09:23:03;;;;;;;2.63;1.90;;;;;23.30;100543.00;;;;4942655;29;20211;-69
2022/05/11 09:26:00;;;;;;;2.03;1.77;;;;;23.30;100557.00;;;;4949601;29;20229;-69
2022/05/11 09:28:46;;;;;;;3.57;1.93;;;;;23.40;100543.00;;;;4949683;29;20702;-69
2022/05/11 09:31:33;;;;;;;2.87;1.83;;;;;23.40;100551.00;;;;4948397;29;20219;-68
2022/05/11 09:34:29;;;;;;;5.27;1.93;;;;;23.50;100529.00;;;;4945283;29;20236;-68
2022/05/11 09:37:26;;;;;;;2.93;2.13;;;;;23.70;100536.00;;;;4947750;29;20212;-68
2022/05/11 09:40:17;;;;;;;5.67;2.10;;;;;23.70;100542.00;;;;4947052;29;20225;-70
2022/05/11 09:43:07;;;;;;;4.93;2.40;;;;;23.70;100533.00;;;;4945810;29;20244;-68
2022/05/11 09:45:53;;;;;;;4.67;2.10;;;;;23.90;100537.00;;;;4947602;28;20216;-68
2022/05/11 09:48:40;;;;;;;3.40;2.10;;;;;23.90;100540.00;;;;4949135;29;20227;-69
2022/05/11 09:51:33;;;;;;;2.77;2.33;;;;;23.90;100545.00;;;;4948566;29;20220;-70
2022/05/11 09:54:32;;;;;;;2.70;2.20;;;;;24.00;100546.00;;;;4948845;29;20296;-69
2022/05/11 09:57:23;;;;;;;2.60;2.13;;;;;24.30;100528.00;;;;4949400;29;20244;-69
2022/05/11 10:00:20;;;;;;;4.33;2.40;;;;;24.00;100541.00;;;;4948855;29;20205;-69
2022/05/11 10:03:11;;;;;;;4.20;2.30;;;;;24.20;100542.00;;;;4949395;29;20356;-68
2022/05/11 10:05:58;;;;;;;4.47;2.20;;;;;24.10;100546.00;;;;4946244;29;20216;-69
2022/05/11 10:08:48;;;;;;;7.30;2.70;;;;;24.30;100537.00;;;;4949107;29;20699;-68
2022/05/11 10:11:39;;;;;;;5.50;2.00;;;;;24.40;100526.00;;;;4951221;28;20223;-68
2022/05/11 10:24:01;;;;;;;3.53;1.90;;;;;24.80;100524.00;;;;4952053;29;20236;-70
2022/05/11 10:26:55;;;;;;;2.70;1.83;;;;;24.90;100521.00;;;;4952381;29;20212;-71
2022/05/11 10:29:56;;;;;;;7.20;2.20;;;;;25.00;100530.00;;;;4952470;29;20321;-68
2022/05/11 10:33:09;;;;;;;3.97;1.80;;;;;25.00;100525.00;;;;4952281;29;20216;-69
2022/05/11 10:36:02;;;;;;;4.60;2.60;;;;;25.10;100517.00;;;;4947125;29;20207;-69
2022/05/11 10:39:08;;;;;;;3.33;2.40;;;;;25.00;100519.00;;;;4951950;29;20303;-70
2022/05/11 10:42:03;;;;;;;5.70;2.03;;;;;25.10;100536.00;;;;4952093;29;20224;-68
2022/05/11 10:45:02;;;;;;;8.30;2.40;;;;;25.10;100510.00;;;;4951781;29;20323;-68
2022/05/11 10:48:08;;;;;;;3.07;2.23;;;;;25.40;100507.00;;;;4951384;29;20295;-69
2022/05/11 10:51:03;;;;;;;5.87;1.80;;;;;25.30;100514.00;;;;4952003;29;20672;-69
2022/05/11 10:53:55;;;;;;;5.07;2.50;;;;;25.40;100503.00;;;;4951822;29;20263;-68
2022/05/11 10:56:51;;;;;;;3.27;2.10;;;;;25.60;100519.00;;;;4951821;28;20992;-70
2022/05/11 10:59:56;;;;;;;3.33;2.17;;;;;25.80;100504.00;;;;4952122;29;20212;-70
2022/05/11 11:03:23;;;;;;;2.53;1.93;;;;;25.90;100515.00;;;;4951300;29;20236;-70
2022/05/11 11:09:33;;;;;;;2.60;2.00;;;;;26.30;100512.00;;;;4951824;29;20276;-71
2022/05/11 11:12:34;;;;;;;1.87;1.70;;;;;26.30;100515.00;;;;4953234;28;20219;-69
2022/05/11 11:15:26;;;;;;;3.20;2.10;;;;;26.30;100493.00;;;;4947116;29;20372;-69
2022/05/11 11:18:15;;;;;;;2.77;2.03;;;;;26.20;100499.00;;;;4945084;29;20220;-69
2022/05/11 11:21:03;;;;;;;3.45;2.03;;;;;26.30;100489.00;;;;4945216;29;20279;-70
2022/05/11 11:24:11;;;;;;;3.28;2.10;;;;;26.20;100502.00;;;;4950862;29;20236;-69
2022/05/11 11:27:00;;;;;;;2.67;1.90;;;;;26.20;100488.00;;;;4950459;29;20215;-69
2022/05/11 11:30:16;;;;;;;2.45;2.13;;;;;26.20;100492.00;;;;4951481;29;20216;-70
2022/05/11 11:33:23;;;;;;;3.17;2.00;;;;;26.10;100492.00;;;;4942190;29;20348;-69
2022/05/11 11:36:30;;;;;;;3.33;1.92;;;;;26.20;100483.00;;;;4945168;29;20288;-70
2022/05/11 11:39:52;;;;;;;2.57;1.73;;;;;26.40;100484.00;;;;4951777;29;20216;-69
2022/05/11 11:42:42;;;;;;;4.00;2.13;;;;;26.50;100470.00;;;;4947582;29;20760;-68
2022/05/11 11:45:59;;;;;;;2.50;1.88;;;;;26.70;100484.00;;;;4951323;29;20228;-68
2022/05/11 11:48:45;;;;;;;2.37;1.50;;;;;26.70;100467.00;;;;4929869;29;20347;-68
2022/05/11 11:51:51;;;;;;;5.15;2.10;;;;;27.00;100475.00;;;;4948871;29;20587;-68
2022/05/11 11:54:48;;;;;;;2.70;1.83;;;;;26.90;100476.00;;;;4947709;29;20751;-67
2022/05/11 11:57:36;;;;;;;2.42;1.77;;;;;27.00;100468.00;;;;4949867;29;20229;-67
2022/05/11 12:00:57;;;;;;;2.58;1.90;;;;;27.10;100468.00;;;;4949631;29;20208;-69
2022/05/11 12:03:56;;;;;;;3.25;1.75;;;;;27.00;100465.00;;;;4949118;29;20224;-70
2022/05/11 12:16:11;;;;;;;4.30;1.80;;;;;27.70;100441.00;;;;4923963;29;20766;-67
2022/05/11 12:19:08;;;;;;;4.47;1.73;;;;;28.00;100453.00;;;;4947487;28;20212;-67
2022/05/11 12:21:57;;;;;;;4.50;1.85;;;;;28.00;100457.00;;;;4947368;29;20207;-66
2022/05/11 12:24:46;;;;;;;1.73;1.50;;;;;28.20;100456.00;;;;4946413;29;20719;-64
2022/05/11 12:27:35;;;;;;;1.95;1.55;;;;;28.10;100454.00;;;;4949121;28;20263;-67
2022/05/11 12:30:27;;;;;;;2.17;1.60;;;;;28.20;100443.00;;;;4944017;29;20223;-69
2022/05/11 12:33:23;;;;;;;3.90;1.63;;;;;28.10;100444.00;;;;4942314;29;20296;-65
2022/05/11 12:36:10;;;;;;;3.03;1.75;;;;;28.30;100432.00;;;;4948873;29;20224;-68
2022/05/11 12:38:56;;;;;;;2.50;1.60;;;;;28.40;100434.00;;;;4947870;29;20216;-68
2022/05/11 12:41:44;;;;;;;3.60;1.80;;;;;28.40;100462.00;;;;4948178;29;20216;-69
2022/05/11 12:44:35;;;;;;;1.70;1.60;;;;;28.20;100416.00;;;;4948088;28;20372;-68
2022/05/11 12:47:22;;;;;;;2.40;1.58;;;;;28.10;100440.00;;;;4948775;29;20211;-69
2022/05/11 12:50:16;;;;;;;3.53;1.73;;;;;28.20;100431.00;;;;4943590;29;20203;-70
2022/05/11 12:53:23;;;;;;;4.00;1.80;;;;;28.40;100424.00;;;;4947256;29;20223;-69
2022/05/11 12:56:14;;;;;;;4.60;1.73;;;;;28.70;100418.00;;;;4946980;29;20295;-68
2022/05/11 12:59:02;;;;;;;3.63;1.85;;;;;28.70;100426.00;;;;4948360;29;20215;-68
2022/05/11 13:01:49;;;;;;;2.05;1.60;;;;;28.90;100418.00;;;;4948268;29;20631;-68
2022/05/11 13:04:35;;;;;;;3.58;1.58;;;;;29.20;100415.00;;;;4947987;29;20302;-69
2022/05/11 13:07:26;;;;;;;1.70;1.48;;;;;29.10;100417.00;;;;4942870;29;20320;-66
2022/05/11 13:10:18;;;;;;;4.00;1.60;;;;;29.30;100417.00;;;;4941628;29;20757;-68
2022/05/11 13:13:11;;;;;;;2.83;1.88;;;;;29.20;100412.00;;;;4945653;28;20299;-69
2022/05/11 13:16:05;;;;;;;1.65;1.55;;;;;29.40;100407.00;;;;4948206;29;20251;-69
2022/05/11 13:19:05;;;;;;;3.22;1.50;;;;;29.50;100416.00;;;;4947719;28;20217;-68
2022/05/11 13:21:52;;;;;;;1.75;1.30;;;;;29.10;100410.00;;;;4951515;28;20224;-67
2022/05/11 13:24:42;;;;;;;1.90;1.65;;;;;29.00;100415.00;;;;4951654;29;20236;-70
2022/05/11 13:27:38;;;;;;;3.15;1.70;;;;;29.20;100405.00;;;;4949721;29;20216;-67
2022/05/11 13:30:34;;;;;;;3.75;1.67;;;;;29.60;100392.00;;;;4948954;29;20760;-66
2022/05/11 13:33:41;;;;;;;1.88;1.58;;;;;29.30;100402.00;;;;4945617;29;20295;-67
2022/05/11 13:36:29;;;;;;;1.63;1.20;;;;;30.00;100396.00;;;;4947198;29;20721;-67
2022/05/11 13:39:28;;;;;;;2.13;1.50;;;;;29.70;100386.00;;;;4945408;29;20255;-65
2022/05/11 13:42:20;;;;;;;1.98;1.50;;;;;30.00;100401.00;;;;4951879;29;20852;-66
2022/05/11 13:45:08;;;;;;;2.95;1.80;;;;;30.20;100390.00;;;;4944091;29;20243;-67
2022/05/11 13:48:14;;;;;;;2.33;1.38;;;;;30.60;100397.00;;;;4951593;29;20275;-67
2022/05/11 13:51:14;;;;;;;1.98;1.60;;;;;30.20;100379.00;;;;4951183;29;20694;-66
2022/05/11 13:54:20;;;;;;;2.35;1.55;;;;;30.30;100384.00;;;;4951295;29;20256;-68
2022/05/11 13:57:11;;;;;;;1.38;1.20;;;;;30.30;100380.00;;;;4944110;29;20211;-66
2022/05/11 14:00:12;;;;;;;4.53;1.27;;;;;30.50;100367.00;;;;4951664;29;20242;-67
2022/05/11 14:03:01;;;;;;;3.60;2.10;;;;;30.70;100375.00;;;;4950870;29;20268;-67
2022/05/11 14:05:47;;;;;;;2.58;1.30;;;;;30.70;100369.00;;;;4951216;29;20223;-68
2022/05/11 14:08:34;;;;;;;3.83;1.50;;;;;31.20;100373.00;;;;4948908;29;20701;-67
2022/05/11 14:11:31;;;;;;;2.15;1.50;;;;;31.20;100360.00;;;;4951865;28;20216;-67
2022/05/11 14:14:17;;;;;;;2.25;1.60;;;;;31.40;100363.00;;;;4948441;29;20279;-68
2022/05/11 14:17:07;;;;;;;3.50;1.40;;;;;31.10;100367.00;;;;4950231;29;20724;-69
2022/05/11 14:19:57;;;;;;;1.77;1.40;;;;;31.00;100359.00;;;;4950884;28;20213;-67
2022/05/11 14:22:44;;;;;;;2.47;1.52;;;;;31.40;100346.00;;;;4950700;29;20586;-68
2022/05/11 14:25:31;;;;;;;5.90;1.35;;;;;31.90;100361.00;;;;4951100;29;20244;-69
2022/05/11 14:28:38;;;;;;;1.50;1.30;;;;;32.00;100352.00;;;;4946830;29;21017;-68
2022/05/11 14:31:24;;;;;;;3.33;1.65;;;;;32.70;100359.00;;;;4945126;28;20266;-68
2022/05/11 14:34:15;;;;;;;2.22;1.60;;;;;33.00;100354.00;;;;4950428;29;20263;-68
2022/05/11 14:37:01;;;;;;;2.92;1.42;;;;;33.80;100348.00;;;;4950778;29;20288;-67
2022/05/11 14:39:48;;;;;;;2.42;1.55;;;;;34.70;100345.00;;;;4951085;29;20228;-68
2022/05/11 14:42:35;;;;;;;2.22;1.60;;;;;36.10;100340.00;;;;4951090;29;20853;-68